Saginaw Browne, MI

6:10 PM EDT on March 28, 2017 (GMT -0400)
Saginaw County-Browne

Weather History for KHYX - April, 2014

Change the Weather History Date:

Tuesday, April 22, 2014

  Actual Average (KMBS) Record (KMBS)
Temperature  
Mean Temperature 48 °F -  
Max Temperature 59 °F 56 °F 82 °F (2007)
Min Temperature 37 °F 35 °F 30 °F (2002)
Degree Days  
Heating Degree Days 17    
Moisture  
Dew Point 38 °F    
Average Humidity 72    
Maximum Humidity 100    
Minimum Humidity 54    
Precipitation  
Precipitation 0.00 in - - ()
Sea Level Pressure  
Sea Level Pressure 29.80 in    
Wind  
Wind Speed 15 mph (NW)    
Max Wind Speed 28 mph    
Max Gust Speed 36 mph    
Visibility 9 miles    
Events Rain    
Averages and records for this station are not official NWS values.
T = Trace of Precipitation, MM = Missing Value Source: NWS Daily Summary

Daily Weather History Graph

Daily Weather History Graph

Search for Another Location

Airport or City:

Trip Planner

Search our weather history database for the weather conditions in past years. The results will help you decide how hot, cold, wet, or windy it might be!

Date:

Astronomy

Apr. 22, 2014 Rise Set
Actual Time 6:41 AM EDT 8:26 PM EDT
Civil Twilight 6:11 AM EDT 8:57 PM EDT
Nautical Twilight 5:34 AM EDT 9:34 PM EDT
Astronomical Twilight 4:54 AM EDT 10:14 PM EDT
Moon 2:42 AM EDT (4/22) 1:15 PM EDT (4/22)
Length of Visible Light 14h 45m
Length of Day
13h 45m
Last Quarter, 46% of the Moon is Illuminated
Apr 22
Last Quarter
Apr 29
New
May 6
First Quarter
May 14
Full
May 21
Last Quarter

Hourly Weather History & Observations

Time (EDT) Temp. Windchill Dew Point Humidity Pressure Visibility Wind Dir Wind Speed Gust Speed Precip Events Conditions
12:15 AM 59.0 °F - 59.0 °F 100% 29.72 in 4.0 mi WSW 6.9 mph - N/A   Drizzle
12:19 AM 57.2 °F - 57.2 °F 100% 29.72 in 4.0 mi WSW 6.9 mph - N/A   Drizzle
12:56 AM 59.0 °F - 59.0 °F 100% 29.71 in 3.0 mi WSW 5.8 mph - N/A   Drizzle
1:16 AM 59.0 °F - 59.0 °F 100% 29.70 in 3.0 mi WSW 9.2 mph - N/A Rain Light Rain
1:38 AM 59.0 °F - 59.0 °F 100% 29.69 in 3.0 mi WSW 9.2 mph - N/A   Overcast
1:46 AM 57.2 °F - 57.2 °F 100% 29.69 in 3.0 mi WSW 9.2 mph - N/A   Overcast
1:55 AM 57.2 °F - 57.2 °F 100% 29.68 in 3.0 mi WSW 8.1 mph - N/A   Overcast
2:15 AM 57.2 °F - 57.2 °F 100% 29.69 in 3.0 mi West 8.1 mph - N/A   Overcast
2:35 AM 59.0 °F - 59.0 °F 100% 29.68 in 3.0 mi West 12.7 mph - N/A   Overcast
2:55 AM 57.2 °F - 57.2 °F 100% 29.67 in 4.0 mi West 10.4 mph - N/A   Overcast
3:15 AM 57.2 °F - 57.2 °F 100% 29.67 in 4.0 mi West 10.4 mph - N/A   Overcast
3:35 AM 57.2 °F - 57.2 °F 100% 29.67 in 3.0 mi WNW 10.4 mph - N/A   Overcast
3:55 AM 57.2 °F - 57.2 °F 100% 29.68 in 4.0 mi NW 10.4 mph - N/A   Overcast
4:15 AM 55.4 °F - 50.0 °F 82% 29.68 in 10.0 mi North 10.4 mph 16.1 mph N/A   Overcast
4:35 AM 53.6 °F - 50.0 °F 88% 29.68 in 10.0 mi NNW 12.7 mph 17.3 mph N/A   Mostly Cloudy
4:55 AM 51.8 °F - 46.4 °F 82% 29.69 in 10.0 mi NNW 19.6 mph 26.5 mph N/A   Overcast
5:14 AM 50.0 °F - 42.8 °F 76% 29.71 in 10.0 mi NNW 21.9 mph 26.5 mph N/A   Overcast
5:35 AM 46.4 °F 38.7 °F 41.0 °F 81% 29.72 in 10.0 mi NW 20.7 mph - N/A   Overcast
6:15 AM 44.6 °F 37.4 °F 37.4 °F 76% 29.73 in 10.0 mi NW 16.1 mph 19.6 mph N/A   Overcast
6:35 AM 44.6 °F 36.9 °F 37.4 °F 76% 29.74 in 10.0 mi NW 18.4 mph 21.9 mph N/A   Overcast
6:55 AM 42.8 °F 34.5 °F 35.6 °F 76% 29.75 in 10.0 mi NW 18.4 mph 24.2 mph N/A   Mostly Cloudy
7:14 AM 42.8 °F 36.2 °F 35.6 °F 76% 29.76 in 10.0 mi NW 12.7 mph 23.0 mph N/A   Mostly Cloudy
7:35 AM 42.8 °F 34.5 °F 35.6 °F 76% 29.77 in 10.0 mi NW 18.4 mph 26.5 mph N/A   Overcast
7:55 AM 42.8 °F 35.8 °F 33.8 °F 70% 29.77 in 10.0 mi NW 13.8 mph 21.9 mph N/A   Overcast
8:14 AM 41.0 °F 32.5 °F 33.8 °F 76% 29.78 in 10.0 mi NW 17.3 mph 26.5 mph N/A   Overcast
8:35 AM 42.8 °F 34.8 °F 33.8 °F 70% 29.78 in 10.0 mi NW 17.3 mph - N/A   Mostly Cloudy
8:55 AM 42.8 °F 35.1 °F 33.8 °F 70% 29.78 in 10.0 mi NW 16.1 mph 21.9 mph N/A   Scattered Clouds
9:14 AM 42.8 °F 34.0 °F 32.0 °F 66% 29.79 in 10.0 mi NW 20.7 mph 24.2 mph N/A   Mostly Cloudy
9:35 AM 42.8 °F 34.0 °F 32.0 °F 66% 29.80 in 10.0 mi NW 20.7 mph 25.3 mph N/A   Overcast
9:55 AM 42.8 °F 34.8 °F 32.0 °F 66% 29.80 in 10.0 mi NW 17.3 mph 21.9 mph N/A   Overcast
10:14 AM 42.8 °F 34.5 °F 32.0 °F 66% 29.79 in 10.0 mi NW 18.4 mph 25.3 mph N/A   Overcast
10:35 AM 44.6 °F 36.9 °F 32.0 °F 61% 29.79 in 10.0 mi WNW 18.4 mph 24.2 mph N/A   Overcast
10:55 AM 44.6 °F 37.2 °F 32.0 °F 61% 29.79 in 10.0 mi WNW 17.3 mph 23.0 mph N/A   Overcast
11:14 AM 44.6 °F 37.4 °F 32.0 °F 61% 29.79 in 10.0 mi WNW 16.1 mph 23.0 mph N/A   Overcast
11:35 AM 46.4 °F 38.7 °F 33.8 °F 62% 29.79 in 10.0 mi WNW 20.7 mph 25.3 mph N/A   Overcast
11:55 AM 48.2 °F - 33.8 °F 58% 29.78 in 10.0 mi WNW 19.6 mph 27.6 mph N/A   Overcast
12:15 PM 48.2 °F - 33.8 °F 58% 29.79 in 10.0 mi WNW 17.3 mph 25.3 mph N/A   Mostly Cloudy
12:35 PM 50.0 °F - 33.8 °F 54% 29.78 in 10.0 mi WNW 19.6 mph 29.9 mph N/A   Mostly Cloudy
12:55 PM 50.0 °F - 33.8 °F 54% 29.77 in 10.0 mi West 20.7 mph 28.8 mph N/A   Mostly Cloudy
1:15 PM 50.0 °F - 33.8 °F 54% 29.78 in 10.0 mi NW 23.0 mph 27.6 mph N/A   Scattered Clouds
1:35 PM 50.0 °F - 33.8 °F 54% 29.78 in 10.0 mi NW 19.6 mph 28.8 mph N/A   Mostly Cloudy
1:55 PM 50.0 °F - 33.8 °F 54% 29.79 in 10.0 mi West 23.0 mph 27.6 mph N/A   Overcast
2:15 PM 48.2 °F - 33.8 °F 58% 29.79 in 10.0 mi WNW 18.4 mph 32.2 mph N/A   Overcast
2:35 PM 48.2 °F - 33.8 °F 58% 29.79 in 10.0 mi NW 21.9 mph 29.9 mph N/A   Overcast
2:55 PM 48.2 °F - 32.0 °F 54% 29.79 in 10.0 mi WNW 21.9 mph 29.9 mph N/A   Overcast
3:15 PM 48.2 °F - 32.0 °F 54% 29.80 in 10.0 mi WNW 25.3 mph 31.1 mph N/A   Overcast
3:35 PM 46.4 °F 37.9 °F 32.0 °F 57% 29.81 in 10.0 mi WNW 25.3 mph 32.2 mph N/A   Overcast
3:55 PM 46.4 °F 38.5 °F 32.0 °F 57% 29.81 in 10.0 mi WNW 21.9 mph 28.8 mph N/A   Overcast
4:15 PM 46.4 °F 38.1 °F 32.0 °F 57% 29.82 in 10.0 mi WNW 24.2 mph 29.9 mph N/A   Overcast
4:35 PM 44.6 °F 36.1 °F 32.0 °F 61% 29.82 in 10.0 mi WNW 21.9 mph 29.9 mph N/A   Overcast
4:55 PM 46.4 °F 38.3 °F 32.0 °F 57% 29.82 in 10.0 mi WNW 23.0 mph 28.8 mph N/A   Overcast
5:15 PM 44.6 °F 35.7 °F 32.0 °F 61% 29.83 in 10.0 mi WNW 24.2 mph 28.8 mph N/A   Overcast
5:35 PM 44.6 °F 35.9 °F 32.0 °F 61% 29.84 in 10.0 mi NW 23.0 mph 31.1 mph N/A   Overcast
5:54 PM 44.6 °F 36.6 °F 32.0 °F 61% 29.84 in 10.0 mi NW 19.6 mph 27.6 mph N/A   Overcast
6:15 PM 44.6 °F 35.3 °F 32.0 °F 61% 29.85 in 10.0 mi NW 26.5 mph 33.4 mph N/A   Mostly Cloudy
6:35 PM 44.6 °F 35.3 °F 30.2 °F 57% 29.86 in 10.0 mi NW 26.5 mph 34.5 mph N/A   Overcast
6:54 PM 42.8 °F 32.7 °F 30.2 °F 61% 29.87 in 10.0 mi NW 27.6 mph 35.7 mph N/A   Overcast
7:15 PM 42.8 °F 33.3 °F 30.2 °F 61% 29.88 in 10.0 mi NW 24.2 mph 29.9 mph N/A   Overcast
7:35 PM 42.8 °F 34.3 °F 30.2 °F 61% 29.89 in 10.0 mi NW 19.6 mph 25.3 mph N/A   Overcast
7:55 PM 42.8 °F 34.5 °F 30.2 °F 61% 29.89 in 10.0 mi NW 18.4 mph 29.9 mph N/A   Overcast
8:15 PM 41.0 °F 32.2 °F 30.2 °F 65% 29.90 in 10.0 mi NNW 18.4 mph 27.6 mph N/A   Overcast
8:34 PM 41.0 °F 31.1 °F 30.2 °F 65% 29.91 in 10.0 mi NW 23.0 mph - N/A   Overcast
8:55 PM 41.0 °F 31.9 °F 30.2 °F 65% 29.92 in 10.0 mi NNW 19.6 mph 25.3 mph N/A   Overcast
9:15 PM 41.0 °F 31.6 °F 30.2 °F 65% 29.93 in 10.0 mi NNW 20.7 mph 26.5 mph N/A   Overcast
9:34 PM 39.2 °F 30.2 °F 30.2 °F 70% 29.94 in 10.0 mi NNW 17.3 mph 27.6 mph N/A   Overcast
9:55 PM 39.2 °F 29.6 °F 30.2 °F 70% 29.95 in 10.0 mi NNW 19.6 mph 25.3 mph N/A   Overcast
10:15 PM 39.2 °F 30.2 °F 30.2 °F 70% 29.95 in 10.0 mi NNW 17.3 mph 23.0 mph N/A   Overcast
10:34 PM 37.4 °F 27.5 °F 30.2 °F 75% 29.95 in 10.0 mi NW 18.4 mph 24.2 mph N/A   Overcast
10:55 PM 37.4 °F 29.8 °F 30.2 °F 75% 29.96 in 10.0 mi NNW 11.5 mph 18.4 mph N/A   Overcast
11:15 PM 37.4 °F 29.3 °F 30.2 °F 75% 29.96 in 10.0 mi NW 12.7 mph 20.7 mph N/A   Overcast
11:34 PM 37.4 °F 27.5 °F 30.2 °F 75% 29.96 in 10.0 mi NW 18.4 mph 23.0 mph N/A   Overcast
11:55 PM 37.4 °F 28.5 °F 30.2 °F 75% 29.97 in 10.0 mi NW 15.0 mph 19.6 mph N/A   Overcast